sensor_id;sensor_type;location;lat;lon;timestamp;P1;durP1;ratioP1;P2;durP2;ratioP2
2724;SDS011;1370;52.596;13.112;2023-03-16T00:01:34;6.53;;;3.67;;
2724;SDS011;1370;52.596;13.112;2023-03-16T00:04:00;5.60;;;3.40;;
2724;SDS011;1370;52.596;13.112;2023-03-16T00:06:26;12.87;;;3.40;;
2724;SDS011;1370;52.596;13.112;2023-03-16T00:08:51;5.40;;;3.27;;
2724;SDS011;1370;52.596;13.112;2023-03-16T00:11:16;6.10;;;2.83;;
2724;SDS011;1370;52.596;13.112;2023-03-16T00:13:42;3.50;;;3.30;;
2724;SDS011;1370;52.596;13.112;2023-03-16T00:16:07;4.53;;;3.03;;
2724;SDS011;1370;52.596;13.112;2023-03-16T00:18:32;3.67;;;3.47;;
2724;SDS011;1370;52.596;13.112;2023-03-16T00:21:03;4.90;;;3.20;;
2724;SDS011;1370;52.596;13.112;2023-03-16T00:23:30;6.80;;;3.40;;
2724;SDS011;1370;52.596;13.112;2023-03-16T00:25:59;5.97;;;2.70;;
2724;SDS011;1370;52.596;13.112;2023-03-16T00:28:27;6.37;;;3.00;;
2724;SDS011;1370;52.596;13.112;2023-03-16T00:30:54;6.90;;;3.90;;
2724;SDS011;1370;52.596;13.112;2023-03-16T00:33:23;4.93;;;3.20;;
2724;SDS011;1370;52.596;13.112;2023-03-16T00:35:49;8.60;;;5.30;;
2724;SDS011;1370;52.596;13.112;2023-03-16T00:38:15;5.00;;;2.93;;
2724;SDS011;1370;52.596;13.112;2023-03-16T00:40:42;3.87;;;3.57;;
2724;SDS011;1370;52.596;13.112;2023-03-16T00:43:07;8.73;;;3.70;;
2724;SDS011;1370;52.596;13.112;2023-03-16T00:45:33;4.60;;;2.80;;
2724;SDS011;1370;52.596;13.112;2023-03-16T00:47:58;7.00;;;3.27;;
2724;SDS011;1370;52.596;13.112;2023-03-16T00:50:23;7.37;;;3.17;;
2724;SDS011;1370;52.596;13.112;2023-03-16T00:52:48;8.17;;;4.37;;
2724;SDS011;1370;52.596;13.112;2023-03-16T00:55:17;6.60;;;3.40;;
2724;SDS011;1370;52.596;13.112;2023-03-16T00:57:42;7.33;;;3.40;;
2724;SDS011;1370;52.596;13.112;2023-03-16T01:00:09;3.30;;;3.10;;
2724;SDS011;1370;52.596;13.112;2023-03-16T01:02:39;5.77;;;3.10;;
2724;SDS011;1370;52.596;13.112;2023-03-16T01:05:04;6.90;;;3.13;;
2724;SDS011;1370;52.596;13.112;2023-03-16T01:07:30;3.93;;;3.20;;
2724;SDS011;1370;52.596;13.112;2023-03-16T01:09:55;3.10;;;2.80;;
2724;SDS011;1370;52.596;13.112;2023-03-16T01:12:21;3.90;;;2.83;;
2724;SDS011;1370;52.596;13.112;2023-03-16T01:14:46;3.60;;;3.30;;
2724;SDS011;1370;52.596;13.112;2023-03-16T01:17:12;3.67;;;3.13;;
2724;SDS011;1370;52.596;13.112;2023-03-16T01:19:38;7.90;;;3.63;;
2724;SDS011;1370;52.596;13.112;2023-03-16T01:22:05;6.70;;;3.67;;
2724;SDS011;1370;52.596;13.112;2023-03-16T01:24:31;2.87;;;2.30;;
2724;SDS011;1370;52.596;13.112;2023-03-16T01:26:56;3.53;;;2.90;;
2724;SDS011;1370;52.596;13.112;2023-03-16T01:29:22;4.43;;;3.27;;
2724;SDS011;1370;52.596;13.112;2023-03-16T01:31:47;6.07;;;2.93;;
2724;SDS011;1370;52.596;13.112;2023-03-16T01:34:14;6.10;;;2.87;;
2724;SDS011;1370;52.596;13.112;2023-03-16T01:36:40;3.23;;;3.03;;
2724;SDS011;1370;52.596;13.112;2023-03-16T01:39:06;3.83;;;3.40;;
2724;SDS011;1370;52.596;13.112;2023-03-16T01:41:31;4.90;;;3.30;;
2724;SDS011;1370;52.596;13.112;2023-03-16T01:43:56;3.27;;;2.60;;
2724;SDS011;1370;52.596;13.112;2023-03-16T01:46:26;5.60;;;3.67;;
2724;SDS011;1370;52.596;13.112;2023-03-16T01:48:57;8.00;;;4.30;;
2724;SDS011;1370;52.596;13.112;2023-03-16T01:51:28;3.00;;;2.80;;
2724;SDS011;1370;52.596;13.112;2023-03-16T01:53:57;3.30;;;2.77;;
2724;SDS011;1370;52.596;13.112;2023-03-16T01:56:26;5.63;;;3.13;;
2724;SDS011;1370;52.596;13.112;2023-03-16T01:58:58;6.60;;;3.17;;
2724;SDS011;1370;52.596;13.112;2023-03-16T02:01:26;5.53;;;3.30;;
2724;SDS011;1370;52.596;13.112;2023-03-16T02:03:54;2.97;;;2.67;;
2724;SDS011;1370;52.596;13.112;2023-03-16T02:06:21;11.20;;;3.93;;
2724;SDS011;1370;52.596;13.112;2023-03-16T02:08:47;4.93;;;2.93;;
2724;SDS011;1370;52.596;13.112;2023-03-16T02:11:13;3.33;;;3.13;;
2724;SDS011;1370;52.596;13.112;2023-03-16T02:13:44;3.80;;;2.87;;
2724;SDS011;1370;52.596;13.112;2023-03-16T02:16:10;3.53;;;3.20;;
2724;SDS011;1370;52.596;13.112;2023-03-16T02:18:35;4.80;;;3.00;;
2724;SDS011;1370;52.596;13.112;2023-03-16T02:23:35;4.43;;;3.10;;
2724;SDS011;1370;52.596;13.112;2023-03-16T02:26:02;3.70;;;3.37;;
2724;SDS011;1370;52.596;13.112;2023-03-16T02:31:18;3.70;;;2.80;;
2724;SDS011;1370;52.596;13.112;2023-03-16T02:33:44;4.00;;;3.07;;
2724;SDS011;1370;52.596;13.112;2023-03-16T02:36:11;9.07;;;3.20;;
2724;SDS011;1370;52.596;13.112;2023-03-16T02:38:38;4.53;;;2.53;;
2724;SDS011;1370;52.596;13.112;2023-03-16T02:41:10;3.10;;;2.80;;
2724;SDS011;1370;52.596;13.112;2023-03-16T02:43:42;4.13;;;2.90;;
2724;SDS011;1370;52.596;13.112;2023-03-16T02:46:11;6.13;;;3.27;;
2724;SDS011;1370;52.596;13.112;2023-03-16T02:48:44;7.30;;;2.90;;
2724;SDS011;1370;52.596;13.112;2023-03-16T02:51:12;3.50;;;3.13;;
2724;SDS011;1370;52.596;13.112;2023-03-16T02:53:37;4.87;;;3.00;;
2724;SDS011;1370;52.596;13.112;2023-03-16T02:56:03;5.07;;;3.33;;
2724;SDS011;1370;52.596;13.112;2023-03-16T02:58:28;6.50;;;2.93;;
2724;SDS011;1370;52.596;13.112;2023-03-16T03:00:55;3.77;;;2.70;;
2724;SDS011;1370;52.596;13.112;2023-03-16T03:03:21;5.47;;;2.80;;
2724;SDS011;1370;52.596;13.112;2023-03-16T03:05:46;11.33;;;4.17;;
2724;SDS011;1370;52.596;13.112;2023-03-16T03:08:11;4.80;;;3.30;;
2724;SDS011;1370;52.596;13.112;2023-03-16T03:10:37;4.13;;;2.97;;
2724;SDS011;1370;52.596;13.112;2023-03-16T03:13:02;9.80;;;3.60;;
2724;SDS011;1370;52.596;13.112;2023-03-16T03:15:27;6.87;;;3.63;;
2724;SDS011;1370;52.596;13.112;2023-03-16T03:17:52;8.20;;;2.93;;
2724;SDS011;1370;52.596;13.112;2023-03-16T03:20:18;5.40;;;3.30;;
2724;SDS011;1370;52.596;13.112;2023-03-16T03:22:44;3.87;;;3.33;;
2724;SDS011;1370;52.596;13.112;2023-03-16T03:25:12;4.72;;;3.47;;
2724;SDS011;1370;52.596;13.112;2023-03-16T03:27:40;3.97;;;3.20;;
2724;SDS011;1370;52.596;13.112;2023-03-16T03:30:09;3.67;;;2.57;;
2724;SDS011;1370;52.596;13.112;2023-03-16T03:32:36;5.67;;;3.00;;
2724;SDS011;1370;52.596;13.112;2023-03-16T03:35:02;4.63;;;2.70;;
2724;SDS011;1370;52.596;13.112;2023-03-16T03:37:27;4.10;;;3.70;;
2724;SDS011;1370;52.596;13.112;2023-03-16T03:39:52;3.60;;;3.13;;
2724;SDS011;1370;52.596;13.112;2023-03-16T03:42:18;3.47;;;2.70;;
2724;SDS011;1370;52.596;13.112;2023-03-16T03:44:43;8.57;;;4.60;;
2724;SDS011;1370;52.596;13.112;2023-03-16T03:47:08;3.13;;;2.87;;
2724;SDS011;1370;52.596;13.112;2023-03-16T03:49:34;2.93;;;2.73;;
2724;SDS011;1370;52.596;13.112;2023-03-16T03:51:59;6.00;;;3.30;;
2724;SDS011;1370;52.596;13.112;2023-03-16T03:54:28;8.70;;;3.37;;
2724;SDS011;1370;52.596;13.112;2023-03-16T03:56:53;9.97;;;4.30;;
2724;SDS011;1370;52.596;13.112;2023-03-16T03:59:19;6.70;;;6.00;;
2724;SDS011;1370;52.596;13.112;2023-03-16T04:01:44;6.60;;;5.33;;
2724;SDS011;1370;52.596;13.112;2023-03-16T04:04:09;6.80;;;4.80;;
2724;SDS011;1370;52.596;13.112;2023-03-16T04:06:35;6.13;;;4.47;;
2724;SDS011;1370;52.596;13.112;2023-03-16T04:09:00;8.43;;;3.80;;
2724;SDS011;1370;52.596;13.112;2023-03-16T04:11:25;3.30;;;3.10;;
2724;SDS011;1370;52.596;13.112;2023-03-16T04:13:51;4.40;;;3.20;;
2724;SDS011;1370;52.596;13.112;2023-03-16T04:16:17;5.30;;;4.00;;
2724;SDS011;1370;52.596;13.112;2023-03-16T04:18:43;4.63;;;3.50;;
2724;SDS011;1370;52.596;13.112;2023-03-16T04:21:13;6.60;;;3.17;;
2724;SDS011;1370;52.596;13.112;2023-03-16T04:23:40;4.28;;;3.97;;
2724;SDS011;1370;52.596;13.112;2023-03-16T04:26:06;9.30;;;3.90;;
2724;SDS011;1370;52.596;13.112;2023-03-16T04:28:31;11.07;;;4.23;;
2724;SDS011;1370;52.596;13.112;2023-03-16T04:31:15;4.00;;;3.60;;
2724;SDS011;1370;52.596;13.112;2023-03-16T04:33:41;5.57;;;4.10;;
2724;SDS011;1370;52.596;13.112;2023-03-16T04:36:06;6.40;;;4.40;;
2724;SDS011;1370;52.596;13.112;2023-03-16T04:38:33;9.68;;;5.13;;
2724;SDS011;1370;52.596;13.112;2023-03-16T04:41:02;8.23;;;6.43;;
2724;SDS011;1370;52.596;13.112;2023-03-16T04:43:28;10.48;;;8.93;;
2724;SDS011;1370;52.596;13.112;2023-03-16T04:45:54;10.00;;;9.15;;
2724;SDS011;1370;52.596;13.112;2023-03-16T04:48:19;19.83;;;10.23;;
2724;SDS011;1370;52.596;13.112;2023-03-16T04:50:47;18.50;;;9.80;;
2724;SDS011;1370;52.596;13.112;2023-03-16T04:53:12;9.50;;;8.60;;
2724;SDS011;1370;52.596;13.112;2023-03-16T04:55:38;7.07;;;6.17;;
2724;SDS011;1370;52.596;13.112;2023-03-16T04:58:03;8.30;;;5.13;;
2724;SDS011;1370;52.596;13.112;2023-03-16T05:00:28;8.00;;;5.83;;
2724;SDS011;1370;52.596;13.112;2023-03-16T05:02:56;9.20;;;5.77;;
2724;SDS011;1370;52.596;13.112;2023-03-16T05:05:22;5.95;;;4.78;;
2724;SDS011;1370;52.596;13.112;2023-03-16T05:07:47;5.60;;;5.13;;
2724;SDS011;1370;52.596;13.112;2023-03-16T05:10:14;12.90;;;5.00;;
2724;SDS011;1370;52.596;13.112;2023-03-16T05:12:40;7.40;;;4.43;;
2724;SDS011;1370;52.596;13.112;2023-03-16T05:15:06;7.97;;;4.57;;
2724;SDS011;1370;52.596;13.112;2023-03-16T05:17:32;6.93;;;5.85;;
2724;SDS011;1370;52.596;13.112;2023-03-16T05:19:58;5.80;;;5.40;;
2724;SDS011;1370;52.596;13.112;2023-03-16T05:22:23;10.57;;;5.70;;
2724;SDS011;1370;52.596;13.112;2023-03-16T05:24:49;5.03;;;4.30;;
2724;SDS011;1370;52.596;13.112;2023-03-16T05:27:15;6.43;;;5.10;;
2724;SDS011;1370;52.596;13.112;2023-03-16T05:29:40;11.93;;;6.33;;
2724;SDS011;1370;52.596;13.112;2023-03-16T05:32:10;16.88;;;5.47;;
2724;SDS011;1370;52.596;13.112;2023-03-16T05:34:35;9.50;;;5.40;;
2724;SDS011;1370;52.596;13.112;2023-03-16T05:37:01;7.53;;;4.40;;
2724;SDS011;1370;52.596;13.112;2023-03-16T05:39:26;11.13;;;6.53;;
2724;SDS011;1370;52.596;13.112;2023-03-16T05:41:52;5.97;;;5.38;;
2724;SDS011;1370;52.596;13.112;2023-03-16T05:44:19;11.43;;;5.28;;
2724;SDS011;1370;52.596;13.112;2023-03-16T05:46:44;9.77;;;4.13;;
2724;SDS011;1370;52.596;13.112;2023-03-16T05:49:09;4.20;;;3.53;;
2724;SDS011;1370;52.596;13.112;2023-03-16T05:51:36;6.97;;;3.90;;
2724;SDS011;1370;52.596;13.112;2023-03-16T05:54:05;4.28;;;3.08;;
2724;SDS011;1370;52.596;13.112;2023-03-16T05:56:30;6.13;;;3.70;;
2724;SDS011;1370;52.596;13.112;2023-03-16T05:58:55;8.93;;;6.53;;
2724;SDS011;1370;52.596;13.112;2023-03-16T06:01:21;6.73;;;6.10;;
2724;SDS011;1370;52.596;13.112;2023-03-16T06:03:47;9.40;;;5.50;;
2724;SDS011;1370;52.596;13.112;2023-03-16T06:06:14;17.77;;;6.45;;
2724;SDS011;1370;52.596;13.112;2023-03-16T06:08:40;15.07;;;6.75;;
2724;SDS011;1370;52.596;13.112;2023-03-16T06:11:05;15.93;;;7.10;;
2724;SDS011;1370;52.596;13.112;2023-03-16T06:13:31;14.43;;;6.97;;
2724;SDS011;1370;52.596;13.112;2023-03-16T06:15:56;10.13;;;6.20;;
2724;SDS011;1370;52.596;13.112;2023-03-16T06:18:21;11.97;;;6.20;;
2724;SDS011;1370;52.596;13.112;2023-03-16T06:20:46;8.10;;;5.07;;
2724;SDS011;1370;52.596;13.112;2023-03-16T06:23:12;12.10;;;7.97;;
2724;SDS011;1370;52.596;13.112;2023-03-16T06:25:38;8.60;;;6.97;;
2724;SDS011;1370;52.596;13.112;2023-03-16T06:28:03;7.50;;;6.90;;
2724;SDS011;1370;52.596;13.112;2023-03-16T06:30:28;9.00;;;7.47;;
2724;SDS011;1370;52.596;13.112;2023-03-16T06:32:54;8.43;;;5.90;;
2724;SDS011;1370;52.596;13.112;2023-03-16T06:35:19;6.70;;;5.80;;
2724;SDS011;1370;52.596;13.112;2023-03-16T06:37:44;11.07;;;6.67;;
2724;SDS011;1370;52.596;13.112;2023-03-16T06:40:10;17.23;;;10.10;;
2724;SDS011;1370;52.596;13.112;2023-03-16T06:42:36;27.13;;;13.45;;
2724;SDS011;1370;52.596;13.112;2023-03-16T06:45:01;48.27;;;23.07;;
2724;SDS011;1370;52.596;13.112;2023-03-16T06:47:26;55.50;;;26.57;;
2724;SDS011;1370;52.596;13.112;2023-03-16T06:49:52;41.83;;;22.20;;
2724;SDS011;1370;52.596;13.112;2023-03-16T06:52:19;39.90;;;20.77;;
2724;SDS011;1370;52.596;13.112;2023-03-16T06:54:45;45.43;;;22.60;;
2724;SDS011;1370;52.596;13.112;2023-03-16T06:57:10;33.97;;;21.20;;
2724;SDS011;1370;52.596;13.112;2023-03-16T06:59:35;24.20;;;15.03;;
2724;SDS011;1370;52.596;13.112;2023-03-16T07:02:01;22.20;;;13.40;;
2724;SDS011;1370;52.596;13.112;2023-03-16T07:04:26;22.20;;;12.60;;
2724;SDS011;1370;52.596;13.112;2023-03-16T07:06:51;25.10;;;11.97;;
2724;SDS011;1370;52.596;13.112;2023-03-16T07:09:17;17.33;;;11.23;;
2724;SDS011;1370;52.596;13.112;2023-03-16T07:11:42;15.57;;;10.77;;
2724;SDS011;1370;52.596;13.112;2023-03-16T07:14:08;13.80;;;8.70;;
2724;SDS011;1370;52.596;13.112;2023-03-16T07:16:34;10.20;;;7.00;;
2724;SDS011;1370;52.596;13.112;2023-03-16T07:18:59;9.60;;;5.30;;
2724;SDS011;1370;52.596;13.112;2023-03-16T07:21:24;15.40;;;5.57;;
2724;SDS011;1370;52.596;13.112;2023-03-16T07:23:50;7.40;;;4.87;;
2724;SDS011;1370;52.596;13.112;2023-03-16T07:26:15;6.07;;;4.83;;
2724;SDS011;1370;52.596;13.112;2023-03-16T07:28:41;12.40;;;5.40;;
2724;SDS011;1370;52.596;13.112;2023-03-16T07:31:06;6.33;;;4.87;;
2724;SDS011;1370;52.596;13.112;2023-03-16T07:33:33;12.10;;;7.03;;
2724;SDS011;1370;52.596;13.112;2023-03-16T07:35:59;9.13;;;6.60;;
2724;SDS011;1370;52.596;13.112;2023-03-16T07:38:28;14.47;;;6.37;;
2724;SDS011;1370;52.596;13.112;2023-03-16T07:40:58;13.57;;;7.30;;
2724;SDS011;1370;52.596;13.112;2023-03-16T07:43:24;9.03;;;6.33;;
2724;SDS011;1370;52.596;13.112;2023-03-16T07:45:53;8.73;;;5.30;;
2724;SDS011;1370;52.596;13.112;2023-03-16T07:48:18;11.53;;;5.80;;
2724;SDS011;1370;52.596;13.112;2023-03-16T07:50:47;12.63;;;5.00;;
2724;SDS011;1370;52.596;13.112;2023-03-16T07:53:13;11.63;;;5.23;;
2724;SDS011;1370;52.596;13.112;2023-03-16T07:55:42;13.93;;;5.50;;
2724;SDS011;1370;52.596;13.112;2023-03-16T07:58:07;8.03;;;6.90;;
2724;SDS011;1370;52.596;13.112;2023-03-16T08:00:34;9.60;;;4.23;;
2724;SDS011;1370;52.596;13.112;2023-03-16T08:03:00;7.17;;;3.97;;
2724;SDS011;1370;52.596;13.112;2023-03-16T08:05:25;3.60;;;3.30;;
2724;SDS011;1370;52.596;13.112;2023-03-16T08:07:51;5.13;;;2.97;;
2724;SDS011;1370;52.596;13.112;2023-03-16T08:10:17;5.20;;;2.97;;
2724;SDS011;1370;52.596;13.112;2023-03-16T08:12:42;5.30;;;2.60;;
2724;SDS011;1370;52.596;13.112;2023-03-16T08:15:08;4.87;;;3.40;;
2724;SDS011;1370;52.596;13.112;2023-03-16T08:17:37;13.53;;;3.60;;
2724;SDS011;1370;52.596;13.112;2023-03-16T08:20:05;6.53;;;2.60;;
2724;SDS011;1370;52.596;13.112;2023-03-16T08:22:33;9.50;;;3.03;;
2724;SDS011;1370;52.596;13.112;2023-03-16T08:25:06;7.47;;;2.10;;
2724;SDS011;1370;52.596;13.112;2023-03-16T08:27:34;7.40;;;2.30;;
2724;SDS011;1370;52.596;13.112;2023-03-16T08:30:00;3.00;;;2.10;;
2724;SDS011;1370;52.596;13.112;2023-03-16T08:32:28;5.83;;;2.00;;
2724;SDS011;1370;52.596;13.112;2023-03-16T08:34:54;7.50;;;2.40;;
2724;SDS011;1370;52.596;13.112;2023-03-16T08:37:21;5.40;;;2.40;;
2724;SDS011;1370;52.596;13.112;2023-03-16T08:39:48;8.40;;;2.23;;
2724;SDS011;1370;52.596;13.112;2023-03-16T08:42:15;3.70;;;2.10;;
2724;SDS011;1370;52.596;13.112;2023-03-16T08:44:41;3.63;;;2.53;;
2724;SDS011;1370;52.596;13.112;2023-03-16T08:47:06;3.37;;;2.47;;
2724;SDS011;1370;52.596;13.112;2023-03-16T08:49:31;5.20;;;2.90;;
2724;SDS011;1370;52.596;13.112;2023-03-16T08:51:57;4.13;;;2.63;;
2724;SDS011;1370;52.596;13.112;2023-03-16T08:54:24;6.10;;;2.30;;
2724;SDS011;1370;52.596;13.112;2023-03-16T08:56:49;6.30;;;2.73;;
2724;SDS011;1370;52.596;13.112;2023-03-16T08:59:15;3.97;;;2.57;;
2724;SDS011;1370;52.596;13.112;2023-03-16T09:01:41;3.37;;;2.20;;
2724;SDS011;1370;52.596;13.112;2023-03-16T09:04:06;7.23;;;2.50;;
2724;SDS011;1370;52.596;13.112;2023-03-16T09:06:31;17.23;;;2.27;;
2724;SDS011;1370;52.596;13.112;2023-03-16T09:08:57;3.07;;;1.60;;
2724;SDS011;1370;52.596;13.112;2023-03-16T09:11:22;4.00;;;2.07;;
2724;SDS011;1370;52.596;13.112;2023-03-16T09:13:50;8.53;;;1.90;;
2724;SDS011;1370;52.596;13.112;2023-03-16T09:16:16;5.77;;;2.70;;
2724;SDS011;1370;52.596;13.112;2023-03-16T09:18:41;8.60;;;1.93;;
2724;SDS011;1370;52.596;13.112;2023-03-16T09:21:07;4.83;;;2.10;;
2724;SDS011;1370;52.596;13.112;2023-03-16T09:23:34;4.83;;;2.00;;
2724;SDS011;1370;52.596;13.112;2023-03-16T09:26:02;8.30;;;2.10;;
2724;SDS011;1370;52.596;13.112;2023-03-16T09:28:29;4.40;;;2.13;;
2724;SDS011;1370;52.596;13.112;2023-03-16T09:30:55;3.40;;;2.77;;
2724;SDS011;1370;52.596;13.112;2023-03-16T09:33:21;2.80;;;1.57;;
2724;SDS011;1370;52.596;13.112;2023-03-16T09:35:48;3.43;;;2.30;;
2724;SDS011;1370;52.596;13.112;2023-03-16T09:38:14;6.57;;;2.13;;
2724;SDS011;1370;52.596;13.112;2023-03-16T09:40:39;5.13;;;1.23;;
2724;SDS011;1370;52.596;13.112;2023-03-16T09:48:41;5.23;;;2.73;;
2724;SDS011;1370;52.596;13.112;2023-03-16T09:51:07;3.60;;;1.60;;
2724;SDS011;1370;52.596;13.112;2023-03-16T09:53:47;3.27;;;1.77;;
2724;SDS011;1370;52.596;13.112;2023-03-16T09:56:15;6.10;;;2.13;;
2724;SDS011;1370;52.596;13.112;2023-03-16T09:58:45;3.90;;;3.17;;
2724;SDS011;1370;52.596;13.112;2023-03-16T10:01:22;2.80;;;1.70;;
2724;SDS011;1370;52.596;13.112;2023-03-16T10:04:05;5.67;;;2.00;;
2724;SDS011;1370;52.596;13.112;2023-03-16T10:06:47;7.00;;;1.87;;
2724;SDS011;1370;52.596;13.112;2023-03-16T10:11:57;2.33;;;1.57;;
2724;SDS011;1370;52.596;13.112;2023-03-16T10:14:34;5.20;;;2.70;;
2724;SDS011;1370;52.596;13.112;2023-03-16T10:17:20;5.80;;;2.00;;
2724;SDS011;1370;52.596;13.112;2023-03-16T10:19:49;6.93;;;2.00;;
2724;SDS011;1370;52.596;13.112;2023-03-16T10:22:21;6.93;;;2.17;;
2724;SDS011;1370;52.596;13.112;2023-03-16T10:27:31;11.47;;;2.03;;
2724;SDS011;1370;52.596;13.112;2023-03-16T10:29:58;7.07;;;2.87;;
2724;SDS011;1370;52.596;13.112;2023-03-16T10:32:28;4.37;;;2.00;;
2724;SDS011;1370;52.596;13.112;2023-03-16T10:34:56;3.50;;;1.77;;
2724;SDS011;1370;52.596;13.112;2023-03-16T10:37:23;5.30;;;1.80;;
2724;SDS011;1370;52.596;13.112;2023-03-16T10:39:51;2.87;;;2.57;;
2724;SDS011;1370;52.596;13.112;2023-03-16T10:42:18;8.60;;;1.50;;
2724;SDS011;1370;52.596;13.112;2023-03-16T10:44:44;5.40;;;1.60;;
2724;SDS011;1370;52.596;13.112;2023-03-16T10:47:21;4.43;;;1.70;;
2724;SDS011;1370;52.596;13.112;2023-03-16T10:49:48;3.20;;;1.53;;
2724;SDS011;1370;52.596;13.112;2023-03-16T10:54:48;5.73;;;1.60;;
2724;SDS011;1370;52.596;13.112;2023-03-16T10:59:47;3.00;;;1.53;;
2724;SDS011;1370;52.596;13.112;2023-03-16T11:02:18;4.63;;;1.57;;
2724;SDS011;1370;52.596;13.112;2023-03-16T11:04:47;4.10;;;2.70;;
2724;SDS011;1370;52.596;13.112;2023-03-16T11:07:17;4.23;;;1.90;;
2724;SDS011;1370;52.596;13.112;2023-03-16T11:09:44;3.20;;;1.50;;
2724;SDS011;1370;52.596;13.112;2023-03-16T11:12:12;4.80;;;1.50;;
2724;SDS011;1370;52.596;13.112;2023-03-16T11:14:41;2.77;;;1.67;;
2724;SDS011;1370;52.596;13.112;2023-03-16T11:17:09;7.43;;;1.70;;
2724;SDS011;1370;52.596;13.112;2023-03-16T11:19:40;5.43;;;1.97;;
2724;SDS011;1370;52.596;13.112;2023-03-16T11:22:13;7.37;;;1.80;;
2724;SDS011;1370;52.596;13.112;2023-03-16T11:27:35;2.10;;;1.67;;
2724;SDS011;1370;52.596;13.112;2023-03-16T11:30:13;4.80;;;1.80;;
2724;SDS011;1370;52.596;13.112;2023-03-16T11:32:53;1.90;;;1.30;;
2724;SDS011;1370;52.596;13.112;2023-03-16T11:35:22;1.83;;;1.40;;
2724;SDS011;1370;52.596;13.112;2023-03-16T11:38:14;2.20;;;1.50;;
2724;SDS011;1370;52.596;13.112;2023-03-16T11:40:45;5.67;;;2.03;;
2724;SDS011;1370;52.596;13.112;2023-03-16T11:43:45;20.97;;;13.00;;
2724;SDS011;1370;52.596;13.112;2023-03-16T11:46:22;4.90;;;2.43;;
2724;SDS011;1370;52.596;13.112;2023-03-16T11:48:52;7.70;;;4.53;;
2724;SDS011;1370;52.596;13.112;2023-03-16T11:51:47;2.57;;;2.00;;
2724;SDS011;1370;52.596;13.112;2023-03-16T11:54:33;2.43;;;1.57;;
2724;SDS011;1370;52.596;13.112;2023-03-16T11:57:25;1.90;;;1.27;;
2724;SDS011;1370;52.596;13.112;2023-03-16T12:02:38;7.27;;;1.77;;
2724;SDS011;1370;52.596;13.112;2023-03-16T12:05:32;3.30;;;1.20;;
2724;SDS011;1370;52.596;13.112;2023-03-16T12:08:15;8.30;;;1.90;;
2724;SDS011;1370;52.596;13.112;2023-03-16T12:11:04;2.50;;;1.53;;
2724;SDS011;1370;52.596;13.112;2023-03-16T12:13:44;2.60;;;1.43;;
2724;SDS011;1370;52.596;13.112;2023-03-16T12:16:27;4.60;;;1.77;;
2724;SDS011;1370;52.596;13.112;2023-03-16T12:18:57;6.77;;;1.90;;
2724;SDS011;1370;52.596;13.112;2023-03-16T12:21:27;3.47;;;1.60;;
2724;SDS011;1370;52.596;13.112;2023-03-16T12:23:57;4.07;;;2.73;;
2724;SDS011;1370;52.596;13.112;2023-03-16T12:26:26;5.70;;;1.73;;
2724;SDS011;1370;52.596;13.112;2023-03-16T12:28:54;2.67;;;1.83;;
2724;SDS011;1370;52.596;13.112;2023-03-16T12:39:55;1.80;;;1.37;;
2724;SDS011;1370;52.596;13.112;2023-03-16T12:45:31;1.90;;;1.30;;
2724;SDS011;1370;52.596;13.112;2023-03-16T12:50:53;2.50;;;1.80;;
2724;SDS011;1370;52.596;13.112;2023-03-16T12:53:24;3.00;;;1.40;;
2724;SDS011;1370;52.596;13.112;2023-03-16T12:56:14;5.13;;;1.50;;
2724;SDS011;1370;52.596;13.112;2023-03-16T12:58:42;2.40;;;1.23;;
2724;SDS011;1370;52.596;13.112;2023-03-16T13:01:10;4.00;;;1.60;;
2724;SDS011;1370;52.596;13.112;2023-03-16T13:03:36;2.10;;;1.43;;
2724;SDS011;1370;52.596;13.112;2023-03-16T13:06:02;8.40;;;1.87;;
2724;SDS011;1370;52.596;13.112;2023-03-16T13:08:40;2.20;;;1.37;;
2724;SDS011;1370;52.596;13.112;2023-03-16T13:11:08;2.27;;;1.10;;
2724;SDS011;1370;52.596;13.112;2023-03-16T13:13:39;3.23;;;1.63;;
2724;SDS011;1370;52.596;13.112;2023-03-16T13:16:28;3.60;;;1.47;;
2724;SDS011;1370;52.596;13.112;2023-03-16T13:18:55;2.60;;;0.97;;
2724;SDS011;1370;52.596;13.112;2023-03-16T13:21:21;1.70;;;1.30;;
2724;SDS011;1370;52.596;13.112;2023-03-16T13:24:24;2.80;;;1.00;;
2724;SDS011;1370;52.596;13.112;2023-03-16T13:26:53;2.30;;;1.60;;
2724;SDS011;1370;52.596;13.112;2023-03-16T13:29:26;2.57;;;1.10;;
2724;SDS011;1370;52.596;13.112;2023-03-16T13:31:57;2.90;;;1.40;;
2724;SDS011;1370;52.596;13.112;2023-03-16T13:34:28;4.40;;;1.57;;
2724;SDS011;1370;52.596;13.112;2023-03-16T13:36:56;4.47;;;1.13;;
2724;SDS011;1370;52.596;13.112;2023-03-16T13:39:23;2.30;;;1.10;;
2724;SDS011;1370;52.596;13.112;2023-03-16T13:41:53;3.40;;;1.53;;
2724;SDS011;1370;52.596;13.112;2023-03-16T13:44:23;5.77;;;1.20;;
2724;SDS011;1370;52.596;13.112;2023-03-16T13:46:49;2.67;;;1.30;;
2724;SDS011;1370;52.596;13.112;2023-03-16T13:49:17;2.53;;;1.30;;
2724;SDS011;1370;52.596;13.112;2023-03-16T13:51:43;2.00;;;1.40;;
2724;SDS011;1370;52.596;13.112;2023-03-16T13:54:15;1.73;;;1.10;;
2724;SDS011;1370;52.596;13.112;2023-03-16T13:56:44;2.17;;;1.03;;
2724;SDS011;1370;52.596;13.112;2023-03-16T13:59:09;2.03;;;1.10;;
2724;SDS011;1370;52.596;13.112;2023-03-16T14:01:35;2.47;;;1.27;;
2724;SDS011;1370;52.596;13.112;2023-03-16T14:04:02;2.13;;;1.30;;
2724;SDS011;1370;52.596;13.112;2023-03-16T14:06:32;3.83;;;1.13;;
2724;SDS011;1370;52.596;13.112;2023-03-16T14:09:06;2.30;;;1.60;;
2724;SDS011;1370;52.596;13.112;2023-03-16T14:11:38;6.20;;;1.50;;
2724;SDS011;1370;52.596;13.112;2023-03-16T14:14:12;1.90;;;1.40;;
2724;SDS011;1370;52.596;13.112;2023-03-16T14:16:48;3.03;;;1.40;;
2724;SDS011;1370;52.596;13.112;2023-03-16T14:19:15;3.10;;;1.60;;
2724;SDS011;1370;52.596;13.112;2023-03-16T14:21:43;4.27;;;1.20;;
2724;SDS011;1370;52.596;13.112;2023-03-16T14:24:19;1.57;;;1.13;;
2724;SDS011;1370;52.596;13.112;2023-03-16T14:26:50;1.60;;;0.93;;
2724;SDS011;1370;52.596;13.112;2023-03-16T14:29:20;1.47;;;0.80;;
2724;SDS011;1370;52.596;13.112;2023-03-16T14:31:51;2.80;;;1.00;;
2724;SDS011;1370;52.596;13.112;2023-03-16T14:34:36;2.00;;;1.00;;
2724;SDS011;1370;52.596;13.112;2023-03-16T14:37:10;1.50;;;0.90;;
2724;SDS011;1370;52.596;13.112;2023-03-16T14:39:36;1.70;;;1.00;;
2724;SDS011;1370;52.596;13.112;2023-03-16T14:42:04;1.70;;;1.13;;
2724;SDS011;1370;52.596;13.112;2023-03-16T14:44:31;5.30;;;1.30;;
2724;SDS011;1370;52.596;13.112;2023-03-16T14:46:59;1.40;;;0.87;;
2724;SDS011;1370;52.596;13.112;2023-03-16T14:49:26;1.70;;;1.20;;
2724;SDS011;1370;52.596;13.112;2023-03-16T14:51:54;1.70;;;1.23;;
2724;SDS011;1370;52.596;13.112;2023-03-16T14:54:23;2.97;;;1.30;;
2724;SDS011;1370;52.596;13.112;2023-03-16T14:56:50;2.97;;;1.30;;
2724;SDS011;1370;52.596;13.112;2023-03-16T14:59:17;1.80;;;1.13;;
2724;SDS011;1370;52.596;13.112;2023-03-16T15:01:43;1.93;;;0.93;;
2724;SDS011;1370;52.596;13.112;2023-03-16T15:04:11;1.70;;;1.10;;
2724;SDS011;1370;52.596;13.112;2023-03-16T15:06:38;4.10;;;1.23;;
2724;SDS011;1370;52.596;13.112;2023-03-16T15:09:03;1.60;;;1.07;;
2724;SDS011;1370;52.596;13.112;2023-03-16T15:11:28;1.70;;;1.27;;
2724;SDS011;1370;52.596;13.112;2023-03-16T15:13:54;2.60;;;1.17;;
2724;SDS011;1370;52.596;13.112;2023-03-16T15:16:28;6.70;;;1.50;;
2724;SDS011;1370;52.596;13.112;2023-03-16T15:18:53;4.03;;;1.43;;
2724;SDS011;1370;52.596;13.112;2023-03-16T15:21:22;2.20;;;1.30;;
2724;SDS011;1370;52.596;13.112;2023-03-16T15:23:53;3.67;;;1.77;;
2724;SDS011;1370;52.596;13.112;2023-03-16T15:26:23;2.73;;;1.53;;
2724;SDS011;1370;52.596;13.112;2023-03-16T15:28:53;2.70;;;1.33;;
2724;SDS011;1370;52.596;13.112;2023-03-16T15:31:19;1.80;;;1.07;;
2724;SDS011;1370;52.596;13.112;2023-03-16T15:33:45;2.33;;;1.43;;
2724;SDS011;1370;52.596;13.112;2023-03-16T15:36:14;3.43;;;1.33;;
2724;SDS011;1370;52.596;13.112;2023-03-16T15:38:45;3.20;;;1.10;;
2724;SDS011;1370;52.596;13.112;2023-03-16T15:41:12;6.70;;;1.57;;
2724;SDS011;1370;52.596;13.112;2023-03-16T15:43:38;1.83;;;1.17;;
2724;SDS011;1370;52.596;13.112;2023-03-16T15:46:03;4.00;;;1.13;;